Time;durP1;ratioP1;P1;durP2;ratioP2;P2;SDS_P1;SDS_P2;PMS_P1;PMS_P2;Temp;Humidity;BMP_temperature;BMP_pressure;BME280_temperature;BME280_humidity;BME280_pressure;Samples;Min_cycle;Max_cycle;Signal;HPM_P1;HPM_P2
2022/03/20 00:01:05;;;;;;;22.50;14.27;;;6.00;44.60;;;;;;5052684;28;20033;-73
2022/03/20 00:03:32;;;;;;;21.05;14.25;;;6.00;44.50;;;;;;5053652;28;20025;-74
2022/03/20 00:05:58;;;;;;;19.88;13.77;;;6.00;44.90;;;;;;5052611;28;20036;-72
2022/03/20 00:08:25;;;;;;;18.42;13.57;;;6.00;44.30;;;;;;5053641;28;20021;-73
2022/03/20 00:10:53;;;;;;;19.85;13.30;;;6.00;44.00;;;;;;5053065;28;20021;-73
2022/03/20 00:13:21;;;;;;;19.88;13.43;;;6.00;44.30;;;;;;5052375;28;20191;-73
2022/03/20 00:15:49;;;;;;;21.52;12.57;;;6.00;43.70;;;;;;5052737;28;20056;-73
2022/03/20 00:18:16;;;;;;;22.33;12.80;;;5.90;43.20;;;;;;5052259;28;20025;-72
2022/03/20 00:20:47;;;;;;;21.35;13.05;;;5.90;43.70;;;;;;5053412;28;20036;-73
2022/03/20 00:23:13;;;;;;;22.45;13.88;;;5.90;43.70;;;;;;5053688;28;20131;-71
2022/03/20 00:25:47;;;;;;;20.52;13.18;;;5.90;43.80;;;;;;5053704;28;20064;-72
2022/03/20 00:28:15;;;;;;;19.30;13.38;;;5.90;43.80;;;;;;5053150;28;20033;-72
2022/03/20 00:30:42;;;;;;;23.17;13.32;;;5.80;43.40;;;;;;5053488;28;20021;-72
2022/03/20 00:33:08;;;;;;;24.05;14.13;;;5.70;43.70;;;;;;5052516;28;20033;-73
2022/03/20 00:35:34;;;;;;;24.63;15.23;;;5.70;43.60;;;;;;5052692;28;20119;-73
2022/03/20 00:38:00;;;;;;;24.48;13.40;;;5.70;44.00;;;;;;5052363;28;20112;-72
2022/03/20 00:40:26;;;;;;;22.52;13.63;;;5.60;44.00;;;;;;5052967;28;20025;-72
2022/03/20 00:42:52;;;;;;;20.48;13.73;;;5.60;44.00;;;;;;5052495;28;20052;-72
2022/03/20 00:45:18;;;;;;;26.50;14.43;;;5.50;43.70;;;;;;5052532;28;20035;-72
2022/03/20 00:47:45;;;;;;;23.00;14.50;;;5.50;44.10;;;;;;5052776;28;20025;-72
2022/03/20 00:50:10;;;;;;;27.33;15.02;;;5.50;44.00;;;;;;5051120;28;20395;-72
2022/03/20 00:52:36;;;;;;;22.48;14.45;;;5.40;43.90;;;;;;5052652;28;20021;-72
2022/03/20 00:55:03;;;;;;;23.98;14.73;;;5.40;43.90;;;;;;5051680;28;20061;-72
2022/03/20 00:57:28;;;;;;;19.98;13.38;;;5.40;44.10;;;;;;5052573;28;20063;-72
2022/03/20 00:59:54;;;;;;;21.23;14.32;;;5.40;44.20;;;;;;5051968;28;20063;-72
2022/03/20 01:02:20;;;;;;;18.33;13.05;;;5.40;43.90;;;;;;5052274;28;20021;-73
2022/03/20 01:04:46;;;;;;;24.40;13.80;;;5.40;43.50;;;;;;5052376;28;20138;-72
2022/03/20 01:07:12;;;;;;;21.05;13.93;;;5.40;43.70;;;;;;5052371;28;20025;-72
2022/03/20 01:09:38;;;;;;;21.30;14.43;;;5.30;43.20;;;;;;5052023;28;20112;-72
2022/03/20 01:12:06;;;;;;;20.08;13.45;;;5.30;43.60;;;;;;5051455;28;20028;-72
2022/03/20 01:14:32;;;;;;;22.08;13.50;;;5.30;43.20;;;;;;5052090;28;20025;-72
2022/03/20 01:16:57;;;;;;;22.90;14.23;;;5.30;43.30;;;;;;5051689;28;20029;-73
2022/03/20 01:19:27;;;;;;;20.90;13.68;;;5.30;43.00;;;;;;5052232;28;20021;-71
2022/03/20 01:21:54;;;;;;;18.73;13.40;;;5.20;42.90;;;;;;5051335;28;20052;-72
2022/03/20 01:24:19;;;;;;;20.00;13.05;;;5.20;43.10;;;;;;5052165;28;20075;-72
2022/03/20 01:26:45;;;;;;;23.17;12.70;;;5.20;42.80;;;;;;5051854;28;20049;-72
2022/03/20 01:29:11;;;;;;;23.67;12.48;;;5.20;42.70;;;;;;5051205;28;20033;-72
2022/03/20 01:31:38;;;;;;;19.55;13.40;;;5.20;42.90;;;;;;5051857;28;20024;-72
2022/03/20 01:34:04;;;;;;;22.83;13.80;;;5.20;43.00;;;;;;5051496;28;20025;-72
2022/03/20 01:36:31;;;;;;;26.33;13.52;;;5.10;42.70;;;;;;5052035;28;20120;-71
2022/03/20 01:38:56;;;;;;;17.70;13.02;;;5.10;42.80;;;;;;5051375;28;20063;-72
2022/03/20 01:41:24;;;;;;;20.63;13.02;;;5.10;43.20;;;;;;5051984;28;20052;-72
2022/03/20 01:43:59;;;;;;;20.10;13.05;;;5.10;42.80;;;;;;5051319;28;20025;-75
2022/03/20 01:46:25;;;;;;;19.20;12.63;;;5.10;43.20;;;;;;5051887;28;20425;-72
2022/03/20 01:48:51;;;;;;;19.25;13.05;;;5.00;43.10;;;;;;5051318;28;20445;-73
2022/03/20 01:51:17;;;;;;;20.67;12.73;;;4.90;43.20;;;;;;5052210;28;20033;-73
2022/03/20 01:53:44;;;;;;;20.95;13.73;;;4.80;43.50;;;;;;5051711;28;20383;-72
2022/03/20 01:56:09;;;;;;;23.45;13.25;;;4.80;43.60;;;;;;5050255;28;20040;-72
2022/03/20 01:58:36;;;;;;;20.98;13.75;;;4.80;43.70;;;;;;5051445;28;20051;-72
2022/03/20 02:01:03;;;;;;;21.35;13.68;;;4.70;44.10;;;;;;5050858;28;20099;-72
2022/03/20 02:03:29;;;;;;;23.40;14.50;;;4.60;44.10;;;;;;5051693;28;20040;-72
2022/03/20 02:05:56;;;;;;;23.90;14.13;;;4.60;44.30;;;;;;5051131;28;20107;-73
2022/03/20 02:08:25;;;;;;;23.40;13.52;;;4.60;44.20;;;;;;5051752;28;20406;-72
2022/03/20 02:10:55;;;;;;;22.48;14.02;;;4.60;44.50;;;;;;5051345;28;20033;-76
2022/03/20 02:13:22;;;;;;;24.55;14.32;;;4.50;44.40;;;;;;5051636;28;20025;-73
2022/03/20 02:15:51;;;;;;;20.65;14.63;;;4.50;44.80;;;;;;5051491;28;20033;-72
2022/03/20 02:18:19;;;;;;;19.20;12.90;;;4.40;44.70;;;;;;5051565;28;20024;-72
2022/03/20 02:20:48;;;;;;;21.35;13.50;;;4.40;44.30;;;;;;5051716;28;20033;-73
2022/03/20 02:23:15;;;;;;;21.20;12.65;;;4.40;44.60;;;;;;5050997;28;20020;-72
2022/03/20 02:25:49;;;;;;;23.83;14.13;;;4.30;44.40;;;;;;5051500;28;20078;-72
2022/03/20 02:28:15;;;;;;;19.77;13.13;;;4.20;44.40;;;;;;5050593;28;20076;-72
2022/03/20 02:30:41;;;;;;;22.65;14.30;;;4.20;44.80;;;;;;5051428;28;20029;-72
2022/03/20 02:33:07;;;;;;;20.80;12.70;;;4.20;44.40;;;;;;5050831;28;20108;-73
2022/03/20 02:35:33;;;;;;;21.08;12.50;;;4.10;44.00;;;;;;5051353;28;20045;-72
2022/03/20 02:37:59;;;;;;;19.73;12.63;;;4.10;44.00;;;;;;5050581;28;20070;-72
2022/03/20 02:40:24;;;;;;;21.63;11.82;;;4.00;44.10;;;;;;5049782;28;20496;-72
2022/03/20 02:42:54;;;;;;;17.88;11.23;;;4.00;43.60;;;;;;5053807;28;20024;-72
2022/03/20 02:45:27;;;;;;;18.17;11.20;;;4.00;43.80;;;;;;5055220;28;20033;-71
2022/03/20 02:47:53;;;;;;;17.02;12.20;;;3.90;43.80;;;;;;5055123;28;20029;-73
2022/03/20 02:50:32;;;;;;;18.08;12.13;;;3.90;44.10;;;;;;5053587;28;20106;-73
2022/03/20 02:53:11;;;;;;;21.42;12.93;;;3.80;43.90;;;;;;5054231;28;20108;-72
2022/03/20 02:55:45;;;;;;;21.27;12.70;;;3.80;43.90;;;;;;5054585;28;20049;-72
2022/03/20 02:58:13;;;;;;;19.85;12.02;;;3.80;43.90;;;;;;5054214;28;20063;-72
2022/03/20 03:00:41;;;;;;;18.20;11.32;;;3.80;43.90;;;;;;5054450;28;20330;-72
2022/03/20 03:03:08;;;;;;;19.55;12.18;;;3.80;43.90;;;;;;5054063;28;20485;-74
2022/03/20 03:05:34;;;;;;;19.95;12.23;;;3.80;44.00;;;;;;5055010;28;20100;-73
2022/03/20 03:10:57;;;;;;;19.38;12.10;;;3.80;44.20;;;;;;5054634;28;20086;-73
2022/03/20 03:13:35;;;;;;;18.52;12.05;;;3.80;44.20;;;;;;5054435;28;20028;-73
2022/03/20 03:16:08;;;;;;;18.13;12.00;;;3.80;44.60;;;;;;5053863;28;20033;-72
2022/03/20 03:18:35;;;;;;;20.58;12.43;;;3.70;44.40;;;;;;5054554;28;20174;-72
2022/03/20 03:21:01;;;;;;;19.33;12.05;;;3.70;44.50;;;;;;5053706;28;20095;-73
2022/03/20 03:23:27;;;;;;;18.63;11.95;;;3.60;44.80;;;;;;5054153;28;20108;-72
2022/03/20 03:25:54;;;;;;;22.33;12.75;;;3.60;44.70;;;;;;5052964;28;20385;-72
2022/03/20 03:28:20;;;;;;;20.17;12.63;;;3.60;44.70;;;;;;5053454;28;20461;-72
2022/03/20 03:30:47;;;;;;;21.27;12.18;;;3.50;44.80;;;;;;5054219;28;20029;-73
2022/03/20 03:33:16;;;;;;;19.00;11.60;;;3.50;44.90;;;;;;5053676;28;20025;-73
2022/03/20 03:35:43;;;;;;;27.00;13.90;;;3.50;44.70;;;;;;5054090;28;20037;-73
2022/03/20 03:38:20;;;;;;;17.60;12.13;;;3.40;45.00;;;;;;5053492;28;20025;-73
2022/03/20 03:40:47;;;;;;;18.15;12.43;;;3.50;45.40;;;;;;5054244;28;20048;-72
2022/03/20 03:43:17;;;;;;;18.95;12.50;;;3.50;45.60;;;;;;5053678;28;20078;-72
2022/03/20 03:45:44;;;;;;;18.33;12.00;;;3.40;45.40;;;;;;5054106;28;20100;-72
2022/03/20 03:48:11;;;;;;;18.85;12.27;;;3.40;45.50;;;;;;5053465;28;20032;-72
2022/03/20 03:50:39;;;;;;;19.83;12.02;;;3.40;45.80;;;;;;5053811;28;20158;-72
2022/03/20 03:53:05;;;;;;;20.90;12.30;;;3.40;46.00;;;;;;5052560;28;20047;-72
2022/03/20 03:55:32;;;;;;;19.50;12.18;;;3.40;45.70;;;;;;5052965;28;20158;-72
2022/03/20 03:57:58;;;;;;;18.52;11.48;;;3.50;45.90;;;;;;5053856;28;20026;-73
2022/03/20 04:00:27;;;;;;;20.67;12.20;;;3.50;45.30;;;;;;5053845;28;20118;-73
2022/03/20 04:02:53;;;;;;;17.70;11.27;;;3.40;44.80;;;;;;5053950;28;20029;-73
2022/03/20 04:05:18;;;;;;;18.73;11.35;;;3.40;44.80;;;;;;5053223;28;20473;-73
2022/03/20 04:07:45;;;;;;;18.05;12.13;;;3.40;45.20;;;;;;5053674;28;20035;-73
2022/03/20 04:10:11;;;;;;;21.70;11.18;;;3.30;44.30;;;;;;5053091;28;20025;-73
2022/03/20 04:12:43;;;;;;;18.25;11.75;;;3.30;44.60;;;;;;5053708;28;20025;-73
2022/03/20 04:15:12;;;;;;;18.25;11.68;;;3.20;44.70;;;;;;5052956;28;20033;-72
2022/03/20 04:17:39;;;;;;;18.48;10.90;;;3.20;44.70;;;;;;5052176;28;20036;-73
2022/03/20 04:20:06;;;;;;;18.13;11.60;;;3.10;44.60;;;;;;5052831;28;20078;-73
2022/03/20 04:22:35;;;;;;;17.70;10.52;;;3.10;44.90;;;;;;5053474;28;20091;-74
2022/03/20 04:25:01;;;;;;;17.95;11.18;;;3.10;44.80;;;;;;5052300;28;20524;-75
2022/03/20 04:27:28;;;;;;;23.33;11.20;;;3.20;45.20;;;;;;5053482;28;20064;-73
2022/03/20 04:29:54;;;;;;;20.02;11.02;;;3.20;45.30;;;;;;5053189;28;20057;-72
2022/03/20 04:32:20;;;;;;;16.80;10.75;;;3.20;44.90;;;;;;5052390;28;20466;-74
2022/03/20 04:34:46;;;;;;;18.98;11.10;;;3.20;44.80;;;;;;5053109;28;20047;-72
2022/03/20 04:37:13;;;;;;;19.40;11.15;;;3.20;44.50;;;;;;5051175;28;20021;-72
2022/03/20 04:39:39;;;;;;;16.00;10.73;;;3.20;45.00;;;;;;5053067;28;20025;-72
2022/03/20 04:42:06;;;;;;;17.30;10.95;;;3.20;44.80;;;;;;5052363;28;20056;-73
2022/03/20 04:44:33;;;;;;;14.88;10.55;;;3.20;44.40;;;;;;5053023;28;20370;-72
2022/03/20 04:46:58;;;;;;;20.73;10.90;;;3.20;44.40;;;;;;5052932;28;20112;-73
2022/03/20 05:00:21;;;;;;;17.38;11.32;;;3.10;45.20;;;;;;5051813;28;20481;-73
2022/03/20 05:02:48;;;;;;;22.25;11.15;;;3.10;44.60;;;;;;5052730;28;20033;-73
2022/03/20 05:05:15;;;;;;;18.30;10.35;;;3.10;44.60;;;;;;5051358;28;20454;-72
2022/03/20 05:07:41;;;;;;;16.08;10.82;;;3.20;44.90;;;;;;5052740;28;20033;-72
2022/03/20 05:13:19;;;;;;;20.42;11.30;;;3.10;44.40;;;;;;5052542;28;20039;-73
2022/03/20 05:15:44;;;;;;;18.90;10.93;;;3.20;44.80;;;;;;5052557;28;20069;-73
2022/03/20 05:18:29;;;;;;;17.83;10.68;;;3.20;44.40;;;;;;5051775;28;20063;-72
2022/03/20 05:20:54;;;;;;;16.95;10.73;;;3.20;44.50;;;;;;5052469;28;20058;-73
2022/03/20 05:23:21;;;;;;;20.30;11.02;;;3.30;44.30;;;;;;5051501;28;20025;-72
2022/03/20 05:25:47;;;;;;;16.92;10.57;;;3.30;44.00;;;;;;5052165;28;20029;-73
2022/03/20 05:28:14;;;;;;;17.02;10.35;;;3.30;44.30;;;;;;5051530;28;20090;-73
2022/03/20 05:30:40;;;;;;;16.45;10.07;;;3.40;43.90;;;;;;5052148;28;20108;-73
2022/03/20 05:33:08;;;;;;;19.25;10.43;;;3.40;44.00;;;;;;5051477;28;20047;-74
2022/03/20 05:35:34;;;;;;;16.20;10.05;;;3.40;43.80;;;;;;5051953;28;20163;-73
2022/03/20 05:38:00;;;;;;;19.50;9.98;;;3.50;43.40;;;;;;5052048;28;20108;-73
2022/03/20 05:40:26;;;;;;;18.63;10.73;;;3.50;42.90;;;;;;5051244;28;20032;-73
2022/03/20 05:42:52;;;;;;;15.20;9.73;;;3.50;42.90;;;;;;5051919;28;20114;-74
2022/03/20 05:45:18;;;;;;;16.30;10.10;;;3.60;43.10;;;;;;5049203;28;20091;-73
2022/03/20 05:47:43;;;;;;;17.20;10.25;;;3.50;42.30;;;;;;5050675;28;20029;-72
2022/03/20 05:50:10;;;;;;;18.85;10.13;;;3.50;42.30;;;;;;5050975;28;20369;-73
2022/03/20 05:52:36;;;;;;;16.60;10.60;;;3.50;42.60;;;;;;5051788;28;20029;-73
2022/03/20 05:55:07;;;;;;;15.75;10.27;;;3.50;42.40;;;;;;5051212;28;20052;-74
2022/03/20 06:00:20;;;;;;;16.40;10.40;;;3.50;42.50;;;;;;5051069;28;20036;-74
2022/03/20 06:02:46;;;;;;;14.45;9.35;;;3.50;42.40;;;;;;5051495;28;20451;-73
2022/03/20 06:05:12;;;;;;;14.73;9.93;;;3.50;42.80;;;;;;5050741;28;20490;-73
2022/03/20 06:07:46;;;;;;;18.80;10.45;;;3.70;43.00;;;;;;5051398;28;20436;-73
2022/03/20 06:10:17;;;;;;;14.02;9.93;;;3.70;42.30;;;;;;5051029;28;20425;-73
2022/03/20 06:12:44;;;;;;;13.20;9.57;;;3.70;42.20;;;;;;5051334;28;20033;-73
2022/03/20 06:15:10;;;;;;;17.88;10.82;;;3.80;42.30;;;;;;5050989;28;20044;-73
2022/03/20 06:17:41;;;;;;;16.65;10.60;;;3.80;42.00;;;;;;5054016;28;20036;-73
2022/03/20 06:20:08;;;;;;;;;;;3.90;42.10;;;;;;5056858;28;20075;-74
2022/03/20 06:22:34;;;;;;;16.05;9.68;;;3.90;41.50;;;;;;5061221;28;19911;-73
2022/03/20 06:25:07;;;;;;;16.08;10.10;;;3.90;41.50;;;;;;5067862;28;20032;-73
2022/03/20 06:27:50;;;;;;;17.77;10.30;;;3.90;41.70;;;;;;5066604;28;20055;-74
2022/03/20 06:30:18;;;;;;;15.38;10.60;;;3.90;41.70;;;;;;5074385;28;20492;-74
2022/03/20 06:32:45;;;;;;;17.42;10.75;;;4.00;41.70;;;;;;5075325;28;20021;-74
2022/03/20 06:35:11;;;;;;;16.60;10.20;;;4.10;41.30;;;;;;5074642;28;20029;-74
2022/03/20 06:37:43;;;;;;;14.55;9.68;;;4.10;41.40;;;;;;5057478;28;20033;-74
2022/03/20 06:40:10;;;;;;;19.38;10.38;;;4.20;41.20;;;;;;5054839;28;20491;-77
2022/03/20 06:42:36;;;;;;;18.77;9.93;;;4.20;41.50;;;;;;5055089;28;20021;-74
2022/03/20 06:45:05;;;;;;;16.02;10.25;;;4.30;41.40;;;;;;5055008;28;20445;-73
2022/03/20 06:47:33;;;;;;;17.95;11.60;;;4.40;41.50;;;;;;5054593;28;20540;-73
2022/03/20 06:50:00;;;;;;;15.55;10.45;;;4.50;41.20;;;;;;5055035;28;20044;-73
2022/03/20 06:52:28;;;;;;;16.05;10.20;;;4.60;40.90;;;;;;5063080;28;20485;-72
2022/03/20 06:54:56;;;;;;;16.98;10.35;;;4.70;40.70;;;;;;5054173;28;20049;-73
2022/03/20 06:57:23;;;;;;;18.85;10.68;;;4.80;41.00;;;;;;5053984;28;20029;-73
2022/03/20 06:59:49;;;;;;;16.00;9.98;;;4.90;40.90;;;;;;5054826;28;20044;-73
2022/03/20 07:02:18;;;;;;;15.98;10.30;;;4.90;40.20;;;;;;5064106;28;20052;-73
2022/03/20 07:04:47;;;;;;;13.88;9.30;;;5.00;39.60;;;;;;5074883;28;20032;-74
2022/03/20 07:07:16;;;;;;;16.23;9.40;;;5.00;39.60;;;;;;5063317;28;20029;-73
2022/03/20 07:09:42;;;;;;;15.63;9.73;;;5.00;39.60;;;;;;5054311;28;20040;-73
2022/03/20 07:12:12;;;;;;;16.50;10.05;;;5.00;39.40;;;;;;5054337;28;20114;-74
2022/03/20 07:14:39;;;;;;;14.82;9.70;;;5.00;39.20;;;;;;5052272;28;20024;-72
2022/03/20 07:17:09;;;;;;;16.00;9.90;;;5.10;39.40;;;;;;5057238;28;20039;-72
2022/03/20 07:19:37;;;;;;;15.18;9.70;;;5.20;39.20;;;;;;5056278;28;20041;-73
2022/03/20 07:22:04;;;;;;;18.42;9.98;;;5.40;39.00;;;;;;5054345;28;20045;-73
2022/03/20 07:24:29;;;;;;;16.83;10.85;;;5.60;39.20;;;;;;5053640;28;20029;-73
2022/03/20 07:29:39;;;;;;;14.80;9.88;;;6.40;38.00;;;;;;5053926;28;20121;-73
2022/03/20 07:32:06;;;;;;;16.63;10.23;;;6.60;37.20;;;;;;5052950;28;20057;-73
2022/03/20 07:34:34;;;;;;;17.17;10.07;;;6.80;36.50;;;;;;5053741;28;20040;-75
2022/03/20 07:37:00;;;;;;;15.43;10.00;;;7.00;35.90;;;;;;5050801;28;20025;-72
2022/03/20 07:39:26;;;;;;;16.67;9.68;;;7.10;35.70;;;;;;5053410;28;20029;-74
2022/03/20 07:41:51;;;;;;;14.05;10.02;;;7.30;35.70;;;;;;5054029;28;20025;-73
2022/03/20 07:44:17;;;;;;;14.75;10.18;;;7.80;35.10;;;;;;5053264;28;20140;-74
2022/03/20 07:46:43;;;;;;;19.27;9.93;;;8.50;34.50;;;;;;5053571;28;20112;-74
2022/03/20 07:49:09;;;;;;;15.05;9.85;;;9.80;32.30;;;;;;5053798;28;20494;-73
2022/03/20 07:51:35;;;;;;;13.25;9.32;;;11.90;31.60;;;;;;5051343;28;20579;-73
2022/03/20 07:54:02;;;;;;;14.55;9.90;;;14.00;28.80;;;;;;5053490;28;20028;-75
2022/03/20 07:56:29;;;;;;;13.57;9.55;;;15.00;26.70;;;;;;5053020;28;20052;-73
2022/03/20 07:58:55;;;;;;;12.95;9.68;;;15.60;26.50;;;;;;5053730;28;20017;-73
2022/03/20 08:01:21;;;;;;;15.18;9.35;;;16.60;25.80;;;;;;5051270;28;20434;-74
2022/03/20 08:03:48;;;;;;;13.43;9.55;;;17.50;25.40;;;;;;5053541;28;20025;-73
2022/03/20 08:06:15;;;;;;;13.05;10.20;;;18.10;24.10;;;;;;5053501;28;20032;-73
2022/03/20 08:08:42;;;;;;;15.30;9.82;;;18.60;23.70;;;;;;5053343;28;20066;-73
2022/03/20 08:11:08;;;;;;;14.38;9.57;;;18.80;23.50;;;;;;5053230;28;20432;-73
2022/03/20 08:13:34;;;;;;;17.02;10.63;;;19.00;23.10;;;;;;5052420;28;20028;-73
2022/03/20 08:16:00;;;;;;;12.95;9.60;;;18.80;23.00;;;;;;5052986;28;20037;-74
2022/03/20 08:18:26;;;;;;;14.85;10.25;;;19.30;23.50;;;;;;5052692;28;20389;-74
2022/03/20 08:20:52;;;;;;;14.50;10.38;;;19.80;22.90;;;;;;5053212;28;20025;-72
2022/03/20 08:23:18;;;;;;;12.90;10.40;;;19.80;22.50;;;;;;5052077;28;20040;-75
2022/03/20 08:25:43;;;;;;;13.05;9.75;;;19.10;22.50;;;;;;5051895;28;20139;-73
2022/03/20 08:28:11;;;;;;;14.00;10.02;;;18.80;22.60;;;;;;5052686;28;20021;-73
2022/03/20 08:30:38;;;;;;;15.32;10.52;;;18.50;23.30;;;;;;5051134;28;20025;-73
2022/03/20 08:33:05;;;;;;;13.95;9.70;;;18.90;23.20;;;;;;5052452;28;20028;-74
2022/03/20 08:35:31;;;;;;;15.00;9.80;;;19.10;22.80;;;;;;5051823;28;20421;-73
2022/03/20 08:37:57;;;;;;;13.23;10.15;;;19.50;23.10;;;;;;5052979;28;20071;-73
2022/03/20 08:40:24;;;;;;;12.77;10.13;;;19.20;22.70;;;;;;5051617;28;20024;-74
2022/03/20 08:42:55;;;;;;;16.20;10.85;;;18.70;23.30;;;;;;5052572;28;20499;-73
2022/03/20 08:45:29;;;;;;;17.10;10.57;;;16.60;24.00;;;;;;5052060;28;20052;-73
2022/03/20 08:47:55;;;;;;;14.52;10.80;;;14.50;25.40;;;;;;5052835;28;20052;-72
2022/03/20 08:50:21;;;;;;;17.48;10.68;;;13.60;26.90;;;;;;5051961;28;20466;-73
2022/03/20 08:52:48;;;;;;;16.58;10.38;;;13.00;27.70;;;;;;5052442;28;20195;-74
2022/03/20 08:55:16;;;;;;;15.27;10.75;;;12.40;28.20;;;;;;5052006;28;20469;-75
2022/03/20 08:57:44;;;;;;;14.93;10.77;;;11.80;29.00;;;;;;5052195;28;20048;-73
2022/03/20 09:00:12;;;;;;;13.77;10.77;;;11.50;29.40;;;;;;5052615;28;20122;-74
2022/03/20 09:02:38;;;;;;;17.05;11.02;;;11.40;29.60;;;;;;5051690;28;20163;-74
2022/03/20 09:05:06;;;;;;;15.18;10.65;;;11.20;29.70;;;;;;5052501;28;20077;-74
2022/03/20 09:07:31;;;;;;;16.17;11.10;;;11.00;29.90;;;;;;5051716;28;20114;-74
2022/03/20 09:09:57;;;;;;;15.88;11.63;;;10.70;29.80;;;;;;5052400;28;20021;-73
2022/03/20 09:12:23;;;;;;;14.52;11.05;;;10.60;30.10;;;;;;5051365;28;20036;-73
2022/03/20 09:14:49;;;;;;;19.35;11.90;;;10.60;30.80;;;;;;5051921;28;20035;-74
2022/03/20 09:19:59;;;;;;;17.88;11.70;;;10.50;30.40;;;;;;5052227;28;20449;-74
2022/03/20 09:22:27;;;;;;;16.80;11.52;;;10.30;30.70;;;;;;5052265;28;20024;-74
2022/03/20 09:24:53;;;;;;;19.50;10.73;;;10.20;30.90;;;;;;5052396;28;20107;-74
2022/03/20 09:27:19;;;;;;;17.70;12.15;;;10.30;30.90;;;;;;5051387;28;20064;-74
2022/03/20 09:29:45;;;;;;;17.00;11.65;;;10.10;30.90;;;;;;5052186;28;20059;-74
2022/03/20 09:32:12;;;;;;;17.52;11.45;;;10.00;30.90;;;;;;5052709;28;20035;-74
2022/03/20 09:34:37;;;;;;;14.52;10.95;;;9.90;31.20;;;;;;5051758;28;20036;-74
2022/03/20 09:37:03;;;;;;;18.33;11.15;;;9.80;31.40;;;;;;5051323;28;20025;-74
2022/03/20 09:39:29;;;;;;;19.77;11.75;;;9.90;31.90;;;;;;5050593;28;20458;-73
2022/03/20 09:41:55;;;;;;;14.55;10.35;;;9.90;31.60;;;;;;5050607;28;20103;-73
2022/03/20 09:44:25;;;;;;;18.52;11.48;;;9.80;31.40;;;;;;5051092;28;20029;-74
2022/03/20 09:46:51;;;;;;;20.65;11.07;;;9.70;31.70;;;;;;5051316;28;20108;-74
2022/03/20 09:49:20;;;;;;;16.52;10.90;;;9.60;31.90;;;;;;5051391;28;20052;-74
2022/03/20 09:51:46;;;;;;;17.50;10.82;;;9.60;32.00;;;;;;5050996;28;20036;-74
2022/03/20 09:54:14;;;;;;;18.08;11.63;;;9.50;32.30;;;;;;5050807;28;20053;-74
2022/03/20 09:56:41;;;;;;;17.17;11.77;;;9.50;32.50;;;;;;5051055;28;20139;-74
2022/03/20 09:59:07;;;;;;;17.35;11.50;;;9.40;32.40;;;;;;5050692;28;20029;-74
2022/03/20 10:01:35;;;;;;;24.88;11.35;;;9.30;32.70;;;;;;5050832;28;20037;-74
2022/03/20 10:04:15;;;;;;;17.98;11.60;;;9.10;32.80;;;;;;5051619;28;20116;-74
2022/03/20 10:06:42;;;;;;;17.45;11.48;;;9.00;33.50;;;;;;5050705;28;20354;-73
2022/03/20 10:09:12;;;;;;;21.38;11.27;;;9.00;33.30;;;;;;5051291;28;20067;-74
2022/03/20 10:11:53;;;;;;;16.30;11.43;;;8.90;33.50;;;;;;5051026;28;20162;-74
2022/03/20 10:14:23;;;;;;;14.52;10.52;;;8.80;33.80;;;;;;5051129;28;20040;-74
2022/03/20 10:17:17;;;;;;;15.67;11.17;;;8.80;34.10;;;;;;5051512;28;20041;-74
2022/03/20 10:19:43;;;;;;;20.98;12.05;;;8.80;34.10;;;;;;5051632;28;20022;-73
2022/03/20 10:22:12;;;;;;;15.25;11.02;;;8.70;34.10;;;;;;5051512;28;20047;-73
2022/03/20 10:24:40;;;;;;;17.20;11.20;;;8.60;34.10;;;;;;5050870;28;20021;-73
2022/03/20 10:27:08;;;;;;;18.63;11.63;;;8.60;34.70;;;;;;5051150;28;20021;-74
2022/03/20 10:29:36;;;;;;;18.92;11.68;;;8.60;34.40;;;;;;5050853;28;20033;-73
2022/03/20 10:32:11;;;;;;;17.88;11.85;;;8.60;34.60;;;;;;5050210;28;20096;-73
2022/03/20 10:35:08;;;;;;;17.33;11.68;;;8.70;34.80;;;;;;5049234;28;20726;-74
2022/03/20 10:37:55;;;;;;;21.08;10.85;;;8.80;34.50;;;;;;5050639;28;20056;-72
2022/03/20 10:40:29;;;;;;;17.55;10.95;;;8.80;34.30;;;;;;5050605;28;20025;-74
2022/03/20 10:43:11;;;;;;;17.38;11.75;;;8.80;34.30;;;;;;5051385;28;20033;-73
2022/03/20 10:45:54;;;;;;;16.05;11.00;;;8.70;34.30;;;;;;5050510;28;20045;-73
2022/03/20 10:48:43;;;;;;;17.20;11.45;;;8.70;34.50;;;;;;5049391;28;20028;-72
2022/03/20 10:51:37;;;;;;;16.17;11.40;;;8.70;34.30;;;;;;5051067;28;20021;-79
2022/03/20 10:54:08;;;;;;;14.55;10.57;;;8.80;34.60;;;;;;5051311;28;20097;-77
2022/03/20 10:56:35;;;;;;;15.70;9.98;;;9.00;34.90;;;;;;5050290;28;20056;-77
2022/03/20 10:59:12;;;;;;;16.02;10.77;;;9.20;34.60;;;;;;5051198;28;20115;-75
2022/03/20 11:01:39;;;;;;;16.08;10.30;;;9.30;33.80;;;;;;5050507;28;20025;-73
2022/03/20 11:04:07;;;;;;;15.13;10.77;;;9.30;33.90;;;;;;5053871;28;20445;-74
2022/03/20 11:06:33;;;;;;;18.73;10.95;;;9.30;33.70;;;;;;5054217;28;20536;-74
2022/03/20 11:09:02;;;;;;;17.38;10.25;;;9.30;34.90;;;;;;5036819;28;20136;-73
2022/03/20 11:11:28;;;;;;;17.23;10.60;;;9.30;34.10;;;;;;5053946;28;20044;-73
2022/03/20 11:13:57;;;;;;;13.75;9.75;;;9.30;33.90;;;;;;5054586;28;20032;-74
2022/03/20 11:16:24;;;;;;;16.48;11.52;;;9.30;34.10;;;;;;5053797;28;20025;-73
2022/03/20 11:18:56;;;;;;;15.50;10.73;;;9.20;34.10;;;;;;5054661;28;20025;-73
2022/03/20 11:21:24;;;;;;;16.35;10.60;;;9.10;34.80;;;;;;5053557;28;20095;-76
2022/03/20 11:23:53;;;;;;;17.02;9.93;;;9.10;34.50;;;;;;5054444;28;20036;-73
2022/03/20 11:26:21;;;;;;;14.57;10.23;;;9.20;34.60;;;;;;5052403;28;20366;-73
2022/03/20 11:28:51;;;;;;;14.85;10.35;;;9.20;34.40;;;;;;5054105;28;20466;-74
2022/03/20 11:31:17;;;;;;;14.18;10.15;;;9.30;34.60;;;;;;5053882;28;20106;-77
2022/03/20 11:33:45;;;;;;;17.40;10.70;;;9.40;33.80;;;;;;5054146;28;20434;-72
2022/03/20 11:36:12;;;;;;;18.42;10.15;;;9.30;33.50;;;;;;5054204;28;20032;-73
2022/03/20 11:38:37;;;;;;;15.25;10.57;;;9.30;33.40;;;;;;5053588;28;20620;-73
2022/03/20 11:41:30;;;;;;;13.30;9.55;;;9.40;33.80;;;;;;5053761;28;20025;-73
2022/03/20 11:44:23;;;;;;;20.48;10.27;;;9.50;33.60;;;;;;5052744;28;20044;-74
2022/03/20 11:47:16;;;;;;;16.33;10.13;;;9.50;33.40;;;;;;5054079;28;20032;-73
2022/03/20 11:49:42;;;;;;;18.92;10.43;;;9.50;33.30;;;;;;5053523;28;20100;-73
2022/03/20 11:52:07;;;;;;;17.80;10.27;;;9.60;33.70;;;;;;5054180;28;20033;-73
2022/03/20 11:54:52;;;;;;;16.50;10.43;;;9.70;33.90;;;;;;5052946;28;20052;-72
2022/03/20 11:57:29;;;;;;;14.25;9.15;;;9.80;33.20;;;;;;5053246;28;20064;-77
2022/03/20 12:00:10;;;;;;;14.32;10.05;;;9.80;33.60;;;;;;5053118;28;20032;-74
2022/03/20 12:02:35;;;;;;;13.95;9.20;;;9.80;33.40;;;;;;5053098;28;20032;-75
2022/03/20 12:05:17;;;;;;;12.45;9.60;;;9.90;33.00;;;;;;5053638;28;20033;-74
2022/03/20 12:07:55;;;;;;;17.58;10.02;;;10.00;33.30;;;;;;5053742;28;20119;-74
2022/03/20 12:10:52;;;;;;;14.75;9.40;;;10.10;33.00;;;;;;5052877;28;20021;-75
2022/03/20 12:13:54;;;;;;;15.45;9.73;;;10.10;32.40;;;;;;5053214;28;20071;-76
2022/03/20 12:16:45;;;;;;;16.40;9.27;;;10.10;32.20;;;;;;5052645;28;20108;-74
2022/03/20 12:19:13;;;;;;;13.80;9.45;;;10.10;32.40;;;;;;5053234;28;20389;-75
2022/03/20 12:21:59;;;;;;;12.35;9.70;;;10.20;32.50;;;;;;5052471;28;20155;-75
2022/03/20 12:24:55;;;;;;;13.98;8.88;;;10.20;32.20;;;;;;5052748;28;20033;-74
2022/03/20 12:29:47;;;;;;;13.30;9.65;;;10.30;31.70;;;;;;5053248;28;20056;-75
2022/03/20 12:32:14;;;;;;;14.05;8.75;;;10.30;32.10;;;;;;5053040;28;20029;-73
2022/03/20 12:34:41;;;;;;;13.35;9.05;;;10.40;32.00;;;;;;5052479;28;20017;-73
2022/03/20 12:37:37;;;;;;;13.73;9.27;;;10.40;32.00;;;;;;5052775;28;20532;-73
2022/03/20 12:40:02;;;;;;;14.88;9.18;;;10.40;31.50;;;;;;5053051;28;20029;-74
2022/03/20 12:42:33;;;;;;;12.77;7.93;;;10.40;31.60;;;;;;5052219;28;20075;-74
2022/03/20 12:45:03;;;;;;;14.10;8.18;;;10.30;31.80;;;;;;5052864;28;20021;-74
2022/03/20 12:47:29;;;;;;;14.23;8.35;;;10.40;32.00;;;;;;5051987;28;20098;-74
2022/03/20 12:50:00;;;;;;;15.85;9.18;;;10.40;32.10;;;;;;5052770;28;20025;-74
2022/03/20 12:52:28;;;;;;;12.95;9.00;;;10.30;31.10;;;;;;5052305;28;20078;-73
2022/03/20 12:55:05;;;;;;;15.93;8.82;;;10.30;31.50;;;;;;5052198;28;20053;-75
2022/03/20 12:57:47;;;;;;;13.27;8.68;;;10.20;30.90;;;;;;5052111;28;20068;-75
2022/03/20 13:00:17;;;;;;;14.85;9.02;;;10.20;30.60;;;;;;5052393;28;20029;-75
2022/03/20 13:02:58;;;;;;;15.25;8.77;;;10.10;30.50;;;;;;5052006;28;20461;-75
2022/03/20 13:05:31;;;;;;;12.93;8.90;;;10.10;30.50;;;;;;5051766;28;20374;-75
2022/03/20 13:07:57;;;;;;;10.93;8.77;;;10.10;30.30;;;;;;5052654;28;20087;-75
2022/03/20 13:10:32;;;;;;;11.73;8.15;;;10.10;30.60;;;;;;5051846;28;20432;-75
2022/03/20 13:13:01;;;;;;;12.55;9.25;;;10.10;30.50;;;;;;5052455;28;20029;-74
2022/03/20 13:18:13;;;;;;;13.35;8.63;;;10.00;30.30;;;;;;5052001;28;20048;-74